createdAt,value
2018-02-05T00:01:04.919Z,0.80
2018-02-05T00:03:33.168Z,0.70
2018-02-05T00:06:00.664Z,0.70
2018-02-05T00:08:29.014Z,0.70
2018-02-05T00:10:56.478Z,0.70
2018-02-05T00:13:23.971Z,0.60
2018-02-05T00:15:51.462Z,0.60
2018-02-05T00:18:18.915Z,0.60
2018-02-05T00:20:46.469Z,0.60
2018-02-05T00:23:13.938Z,0.60
2018-02-05T00:25:41.422Z,0.60
2018-02-05T00:28:09.419Z,0.50
2018-02-05T00:30:37.653Z,0.40
2018-02-05T00:33:05.148Z,0.40
2018-02-05T00:35:33.471Z,0.30
2018-02-05T00:38:01.068Z,0.30
2018-02-05T00:40:28.514Z,0.30
2018-02-05T00:42:56.008Z,0.20
2018-02-05T00:45:24.286Z,0.10
2018-02-05T00:47:52.556Z,0.10
2018-02-05T00:50:20.059Z,0.10
2018-02-05T00:52:47.572Z,0.10
2018-02-05T00:55:15.799Z,0.10
2018-02-05T00:57:43.285Z,0.00
2018-02-05T01:00:10.822Z,0.00
2018-02-05T01:02:38.314Z,0.00
2018-02-05T01:05:05.779Z,0.00
2018-02-05T01:07:33.250Z,0.00
2018-02-05T01:10:01.553Z,0.00
2018-02-05T01:12:29.055Z,-0.10
2018-02-05T01:14:56.527Z,-0.10
2018-02-05T01:17:23.994Z,0.00
2018-02-05T01:19:52.978Z,-0.10
2018-02-05T01:22:20.467Z,-0.10
2018-02-05T01:24:48.718Z,-0.10
2018-02-05T01:27:16.171Z,-0.10
2018-02-05T01:29:43.706Z,-0.10
2018-02-05T01:32:11.216Z,-0.20
2018-02-05T01:34:39.521Z,-0.30
2018-02-05T01:37:06.922Z,-0.30
2018-02-05T01:39:34.492Z,-0.30
2018-02-05T01:42:01.973Z,-0.30
2018-02-05T01:44:30.223Z,-0.30
2018-02-05T01:46:57.686Z,-0.30
2018-02-05T01:49:25.992Z,-0.30
2018-02-05T01:51:54.238Z,-0.30
2018-02-05T01:54:21.705Z,-0.40
2018-02-05T01:56:49.226Z,-0.40
2018-02-05T01:59:16.728Z,-0.40
2018-02-05T02:01:44.271Z,-0.40
2018-02-05T02:04:13.302Z,-0.50
2018-02-05T02:06:41.545Z,-0.50
2018-02-05T02:09:08.999Z,-0.50
2018-02-05T02:11:36.586Z,-0.60
2018-02-05T02:14:04.046Z,-0.60
2018-02-05T02:16:32.356Z,-0.60
2018-02-05T02:18:59.851Z,-0.60
2018-02-05T02:21:27.382Z,-0.60
2018-02-05T02:23:54.881Z,-0.70
2018-02-05T02:26:23.158Z,-0.70
2018-02-05T02:28:50.615Z,-0.80
2018-02-05T02:31:18.145Z,-0.80
2018-02-05T02:33:45.643Z,-0.80
2018-02-05T02:36:13.157Z,-0.80
2018-02-05T02:38:40.836Z,-0.90
2018-02-05T02:41:08.375Z,-0.90
2018-02-05T02:43:35.840Z,-0.90
2018-02-05T02:46:03.428Z,-0.80
2018-02-05T02:48:31.692Z,-0.80
2018-02-05T02:50:59.263Z,-0.80
2018-02-05T02:53:26.729Z,-0.80
2018-02-05T02:55:55.135Z,-0.70
2018-02-05T02:58:23.067Z,-0.70
2018-02-05T03:00:51.571Z,-0.70
2018-02-05T03:03:19.899Z,-0.70
2018-02-05T03:05:47.410Z,-0.70
2018-02-05T03:08:15.650Z,-0.80
2018-02-05T03:10:43.138Z,-0.80
2018-02-05T03:13:11.487Z,-0.80
2018-02-05T03:15:38.974Z,-0.80
2018-02-05T03:18:07.249Z,-0.80
2018-02-05T03:20:34.759Z,-0.80
2018-02-05T03:23:02.273Z,-0.80
2018-02-05T03:25:29.754Z,-0.90
2018-02-05T03:27:58.006Z,-1.00
2018-02-05T03:30:26.271Z,-0.90
2018-02-05T03:32:53.735Z,-1.00
2018-02-05T03:35:21.190Z,-0.90
2018-02-05T03:37:48.659Z,-1.00
2018-02-05T03:40:16.877Z,-1.00
2018-02-05T03:42:44.350Z,-1.00
2018-02-05T03:45:11.823Z,-1.00
2018-02-05T03:47:39.301Z,-1.00
2018-02-05T03:50:06.771Z,-1.00
2018-02-05T03:52:35.035Z,-0.90
2018-02-05T03:55:02.497Z,-0.90
2018-02-05T03:57:29.971Z,-0.90
2018-02-05T03:59:58.213Z,-0.90
2018-02-05T04:02:25.687Z,-1.00
2018-02-05T04:04:53.144Z,-1.00
2018-02-05T04:07:20.690Z,-1.00
2018-02-05T04:09:48.175Z,-0.90
2018-02-05T04:12:16.390Z,-0.90
2018-02-05T04:14:43.847Z,-1.00
2018-02-05T04:17:11.324Z,-0.90
2018-02-05T04:19:38.786Z,-1.00
2018-02-05T04:22:06.495Z,-1.00
2018-02-05T04:24:34.755Z,-1.00
2018-02-05T04:27:02.221Z,-1.00
2018-02-05T04:29:29.666Z,-1.00
2018-02-05T04:31:57.154Z,-1.00
2018-02-05T04:34:25.380Z,-1.10
2018-02-05T04:36:52.849Z,-1.10
2018-02-05T04:39:20.436Z,-1.10
2018-02-05T04:41:48.684Z,-1.10
2018-02-05T04:44:16.130Z,-1.10
2018-02-05T04:46:43.974Z,-1.10
2018-02-05T04:49:11.470Z,-1.10
2018-02-05T04:51:39.035Z,-1.10
2018-02-05T04:54:06.503Z,-1.20
2018-02-05T04:56:33.947Z,-1.20
2018-02-05T04:59:01.443Z,-1.20
2018-02-05T05:01:29.704Z,-1.30
2018-02-05T05:03:57.155Z,-1.30
2018-02-05T05:06:24.635Z,-1.30
2018-02-05T05:08:52.887Z,-1.30
2018-02-05T05:11:20.358Z,-1.30
2018-02-05T05:13:48.633Z,-1.30
2018-02-05T05:16:16.101Z,-1.30
2018-02-05T05:18:44.360Z,-1.30
2018-02-05T05:21:11.827Z,-1.30
2018-02-05T05:23:40.066Z,-1.40
2018-02-05T05:26:07.540Z,-1.40
2018-02-05T05:28:34.997Z,-1.30
2018-02-05T05:31:02.492Z,-1.30
2018-02-05T05:33:30.750Z,-1.30
2018-02-05T05:35:58.280Z,-1.30
2018-02-05T05:38:25.767Z,-1.30
2018-02-05T05:40:53.249Z,-1.30
2018-02-05T05:43:21.486Z,-1.40
2018-02-05T05:45:48.944Z,-1.40
2018-02-05T05:48:16.487Z,-1.40
2018-02-05T05:50:43.964Z,-1.40
2018-02-05T05:53:11.448Z,-1.40
2018-02-05T05:55:39.674Z,-1.40
2018-02-05T05:58:07.151Z,-1.40
2018-02-05T06:00:34.613Z,-1.40
2018-02-05T06:03:02.085Z,-1.50
2018-02-05T06:05:29.540Z,-1.50
2018-02-05T06:07:57.020Z,-1.40
2018-02-05T06:10:25.260Z,-1.50
2018-02-05T06:12:52.731Z,-1.50
2018-02-05T06:15:20.192Z,-1.50
2018-02-05T06:17:47.643Z,-1.50
2018-02-05T06:20:15.123Z,-1.50
2018-02-05T06:22:43.362Z,-1.50
2018-02-05T06:25:10.899Z,-1.50
2018-02-05T06:27:38.382Z,-1.60
2018-02-05T06:30:05.864Z,-1.60
2018-02-05T06:32:33.330Z,-1.60
2018-02-05T06:35:01.137Z,-1.60
2018-02-05T06:37:28.630Z,-1.60
2018-02-05T06:39:56.083Z,-1.60
2018-02-05T06:42:23.870Z,-1.60
2018-02-05T06:44:51.328Z,-1.70
2018-02-05T06:47:18.935Z,-1.70
2018-02-05T06:49:46.394Z,-1.70
2018-02-05T06:52:20.475Z,-1.70
2018-02-05T06:54:59.888Z,-1.70
2018-02-05T06:57:27.375Z,-1.70
2018-02-05T06:59:55.612Z,-1.70
2018-02-05T07:02:23.095Z,-1.70
2018-02-05T07:04:50.661Z,-1.70
2018-02-05T07:07:18.145Z,-1.80
2018-02-05T07:09:46.396Z,-1.80
2018-02-05T07:12:14.639Z,-1.70
2018-02-05T07:14:42.102Z,-1.80
2018-02-05T07:17:09.580Z,-1.70
2018-02-05T07:19:37.010Z,-1.70
2018-02-05T07:22:04.508Z,-1.70
2018-02-05T07:24:32.871Z,-1.60
2018-02-05T07:27:00.311Z,-1.60
2018-02-05T07:29:27.797Z,-1.60
2018-02-05T07:31:55.308Z,-1.60
2018-02-05T07:34:22.782Z,-1.50
2018-02-05T07:36:50.252Z,-1.50
2018-02-05T07:39:17.722Z,-1.50
2018-02-05T07:41:45.202Z,-1.40
2018-02-05T07:44:13.823Z,-1.30
2018-02-05T07:46:41.308Z,-1.30
2018-02-05T07:49:08.787Z,-1.30
2018-02-05T07:51:36.271Z,-1.20
2018-02-05T07:54:04.524Z,-1.20
2018-02-05T07:56:32.002Z,-1.20
2018-02-05T07:59:00.263Z,-1.10
2018-02-05T08:01:28.523Z,-1.10
2018-02-05T08:03:55.994Z,-1.10
2018-02-05T08:06:23.516Z,-1.10
2018-02-05T08:08:51.046Z,-1.00
2018-02-05T08:11:19.349Z,-1.00
2018-02-05T08:13:46.815Z,-1.10
2018-02-05T08:16:14.319Z,-1.00
2018-02-05T08:18:42.670Z,-1.00
2018-02-05T08:21:10.251Z,-1.00
2018-02-05T08:23:37.731Z,-1.00
2018-02-05T08:26:05.981Z,-0.80
2018-02-05T08:28:33.464Z,-0.90
2018-02-05T08:31:01.683Z,-0.80
2018-02-05T08:33:29.203Z,-0.80
2018-02-05T08:35:56.646Z,-0.70
2018-02-05T08:38:24.899Z,-0.50
2018-02-05T08:40:52.370Z,-0.50
2018-02-05T08:43:19.931Z,-0.50
2018-02-05T08:45:47.402Z,-0.30
2018-02-05T08:48:15.627Z,-0.10
2018-02-05T08:50:43.116Z,-0.10
2018-02-05T08:53:10.570Z,0.00
2018-02-05T08:55:38.039Z,0.10
2018-02-05T08:58:05.507Z,0.10
2018-02-05T09:00:33.828Z,1.30
2018-02-05T09:03:01.304Z,1.30
2018-02-05T09:05:28.798Z,2.00
2018-02-05T09:07:56.262Z,2.70
2018-02-05T09:10:24.506Z,3.40
2018-02-05T09:12:51.997Z,3.40
2018-02-05T09:15:20.275Z,4.10
2018-02-05T09:17:48.749Z,4.60
2018-02-05T09:20:16.235Z,4.60
2018-02-05T09:22:44.479Z,4.70
2018-02-05T09:25:11.938Z,4.70
2018-02-05T09:27:39.419Z,4.40
2018-02-05T09:30:07.645Z,4.00
2018-02-05T09:32:35.183Z,4.00
2018-02-05T09:35:02.643Z,4.10
2018-02-05T09:37:30.127Z,4.50
2018-02-05T09:39:57.584Z,4.70
2018-02-05T09:42:25.064Z,4.90
2018-02-05T09:44:53.335Z,4.90
2018-02-05T09:47:20.799Z,4.90
2018-02-05T09:49:48.307Z,4.80
2018-02-05T09:52:15.763Z,4.70
2018-02-05T09:54:43.228Z,4.50
2018-02-05T09:57:10.723Z,4.20
2018-02-05T09:59:38.187Z,4.10
2018-02-05T10:02:05.660Z,3.80
2018-02-05T10:04:33.156Z,3.50
2018-02-05T10:07:00.642Z,3.40
2018-02-05T10:09:28.126Z,3.60
2018-02-05T10:11:55.581Z,3.80
2018-02-05T10:14:23.051Z,3.50
2018-02-05T10:16:50.524Z,3.50
2018-02-05T10:19:18.774Z,3.50
2018-02-05T10:21:46.268Z,3.50
2018-02-05T10:24:14.493Z,3.50
2018-02-05T10:26:41.961Z,3.50
2018-02-05T10:29:09.450Z,3.30
2018-02-05T10:31:37.722Z,3.30
2018-02-05T10:34:06.011Z,3.60
2018-02-05T10:36:34.355Z,4.00
2018-02-05T10:39:01.783Z,4.00
2018-02-05T10:41:29.536Z,4.00
2018-02-05T10:43:57.303Z,4.10
2018-02-05T10:46:24.824Z,4.20
2018-02-05T10:48:53.124Z,4.20
2018-02-05T10:51:21.351Z,4.40
2018-02-05T10:53:48.847Z,4.40
2018-02-05T10:56:17.064Z,4.30
2018-02-05T10:58:44.765Z,4.20
2018-02-05T11:01:12.252Z,3.80
2018-02-05T11:03:40.458Z,3.50
2018-02-05T11:06:07.931Z,3.50
2018-02-05T11:08:35.511Z,3.30
2018-02-05T11:11:03.044Z,2.90
2018-02-05T11:13:30.781Z,2.90
2018-02-05T11:15:58.316Z,2.90
2018-02-05T11:18:26.647Z,2.80
2018-02-05T11:20:54.111Z,2.80
2018-02-05T11:23:21.607Z,2.90
2018-02-05T11:25:49.834Z,3.20
2018-02-05T11:28:17.317Z,3.10
2018-02-05T11:30:44.796Z,3.30
2018-02-05T11:33:13.027Z,3.10
2018-02-05T11:35:40.555Z,3.10
2018-02-05T11:38:08.053Z,3.00
2018-02-05T11:40:35.549Z,3.00
2018-02-05T11:43:03.067Z,2.90
2018-02-05T11:45:30.561Z,3.10
2018-02-05T11:47:58.021Z,3.30
2018-02-05T11:50:25.535Z,3.30
2018-02-05T11:52:53.032Z,3.30
2018-02-05T11:55:20.521Z,3.20
2018-02-05T11:57:48.767Z,3.20
2018-02-05T12:00:16.261Z,3.20
2018-02-05T12:02:44.684Z,3.50
2018-02-05T12:05:12.099Z,3.40
2018-02-05T12:07:39.633Z,3.50
2018-02-05T12:10:07.111Z,3.50
2018-02-05T12:12:35.359Z,3.30
2018-02-05T12:15:02.851Z,3.30
2018-02-05T12:17:30.481Z,3.10
2018-02-05T12:19:57.931Z,3.10
2018-02-05T12:22:31.243Z,3.10
2018-02-05T12:24:59.493Z,3.10
2018-02-05T12:27:26.976Z,3.10
2018-02-05T12:29:56.087Z,3.10
2018-02-05T12:32:24.375Z,3.10
2018-02-05T12:34:52.638Z,3.10
2018-02-05T12:37:21.052Z,3.10
2018-02-05T12:39:48.647Z,3.00
2018-02-05T12:42:16.147Z,3.10
2018-02-05T12:44:44.446Z,3.00
2018-02-05T12:47:11.930Z,3.00
2018-02-05T12:49:39.407Z,3.00
2018-02-05T12:52:06.884Z,3.00
2018-02-05T12:54:34.335Z,3.10
2018-02-05T12:57:01.803Z,3.20
2018-02-05T12:59:30.050Z,3.20
2018-02-05T13:05:18.544Z,3.10
2018-02-05T13:07:46.023Z,3.00
2018-02-05T13:10:14.943Z,3.00
2018-02-05T13:12:42.425Z,3.00
2018-02-05T13:15:09.929Z,3.00
2018-02-05T13:17:38.196Z,3.00
2018-02-05T13:20:06.209Z,3.00
2018-02-05T13:22:33.723Z,3.00
2018-02-05T13:25:01.279Z,2.90
2018-02-05T13:27:28.752Z,2.80
2018-02-05T13:29:58.913Z,2.80
2018-02-05T13:32:26.372Z,2.80
2018-02-05T13:34:53.889Z,2.90
2018-02-05T13:37:22.133Z,2.90
2018-02-05T13:39:49.876Z,2.90
2018-02-05T13:42:17.769Z,3.00
2018-02-05T13:44:45.439Z,3.20
2018-02-05T13:47:12.964Z,3.20
2018-02-05T13:49:40.441Z,3.20
2018-02-05T13:52:07.896Z,3.10
2018-02-05T13:54:35.761Z,3.00
2018-02-05T13:57:03.731Z,3.00
2018-02-05T13:59:31.219Z,2.90
2018-02-05T14:02:02.578Z,2.80
2018-02-05T14:04:30.175Z,2.80
2018-02-05T14:06:57.884Z,2.70
2018-02-05T14:09:25.380Z,2.70
2018-02-05T14:11:53.616Z,2.80
2018-02-05T14:14:21.091Z,2.70
2018-02-05T14:16:49.022Z,2.60
2018-02-05T14:19:16.697Z,2.70
2018-02-05T14:21:44.401Z,2.80
2018-02-05T14:24:12.635Z,2.70
2018-02-05T14:26:40.118Z,2.70
2018-02-05T14:29:07.635Z,2.70
2018-02-05T14:31:35.395Z,2.70
2018-02-05T14:34:02.872Z,2.70
2018-02-05T14:36:30.359Z,2.60
2018-02-05T14:38:58.177Z,2.50
2018-02-05T14:41:25.915Z,2.40
2018-02-05T14:43:54.219Z,2.40
2018-02-05T14:46:21.688Z,2.40
2018-02-05T14:48:49.345Z,2.50
2018-02-05T14:51:17.216Z,2.40
2018-02-05T14:53:44.667Z,2.40
2018-02-05T14:56:12.127Z,2.30
2018-02-05T14:58:39.636Z,2.30
2018-02-05T15:01:07.878Z,2.20
2018-02-05T15:03:35.377Z,2.20
2018-02-05T15:10:39.423Z,2.20
2018-02-05T15:13:07.785Z,2.20
2018-02-05T15:15:35.262Z,2.10
2018-02-05T15:18:03.520Z,2.10
2018-02-05T15:20:31.382Z,2.10
2018-02-05T15:22:59.079Z,2.20
2018-02-05T15:25:28.511Z,2.10
2018-02-05T15:27:56.081Z,2.00
2018-02-05T15:30:23.583Z,2.00
2018-02-05T15:32:51.085Z,2.00
2018-02-05T15:35:18.586Z,1.90
2018-02-05T15:37:46.060Z,2.00
2018-02-05T15:40:15.060Z,1.90
2018-02-05T15:42:43.342Z,1.90
2018-02-05T15:45:11.599Z,1.90
2018-02-05T15:47:39.108Z,1.90
2018-02-05T15:50:06.543Z,1.80
2018-02-05T15:52:34.801Z,1.80
2018-02-05T15:55:02.307Z,1.80
2018-02-05T15:57:29.779Z,1.80
2018-02-05T15:59:57.243Z,1.80
2018-02-05T16:02:24.716Z,1.80
2018-02-05T16:04:52.271Z,1.80
2018-02-05T16:07:19.857Z,1.70
2018-02-05T16:09:47.316Z,1.80
2018-02-05T16:12:16.637Z,1.60
2018-02-05T16:14:44.391Z,1.60
2018-02-05T16:17:13.028Z,1.60
2018-02-05T16:19:40.521Z,1.60
2018-02-05T16:22:07.987Z,1.50
2018-02-05T16:24:35.924Z,1.50
2018-02-05T16:27:03.638Z,1.50
2018-02-05T16:29:32.401Z,1.50
2018-02-05T16:31:59.858Z,1.40
2018-02-05T16:34:27.503Z,1.40
2018-02-05T16:36:56.754Z,1.40
2018-02-05T16:39:24.472Z,1.50
2018-02-05T16:41:52.298Z,1.50
2018-02-05T16:44:20.537Z,1.40
2018-02-05T16:46:50.319Z,1.40
2018-02-05T16:49:18.922Z,1.40
2018-02-05T16:51:46.369Z,1.40
2018-02-05T16:54:13.915Z,1.40
2018-02-05T16:56:41.404Z,1.30
2018-02-05T16:59:08.847Z,1.30
2018-02-05T17:01:36.323Z,1.30
2018-02-05T17:04:04.183Z,1.20
2018-02-05T17:06:31.631Z,1.20
2018-02-05T17:08:59.086Z,1.20
2018-02-05T17:11:26.586Z,1.20
2018-02-05T17:13:54.823Z,1.20
2018-02-05T17:16:22.257Z,1.20
2018-02-05T17:18:49.843Z,1.10
2018-02-05T17:21:17.295Z,1.20
2018-02-05T17:23:44.754Z,1.20
2018-02-05T17:26:12.263Z,1.10
2018-02-05T17:28:40.482Z,1.10
2018-02-05T17:31:07.957Z,1.10
2018-02-05T17:33:35.439Z,1.10
2018-02-05T17:36:03.668Z,1.10
2018-02-05T17:38:31.111Z,1.00
2018-02-05T17:40:58.615Z,1.00
2018-02-05T17:43:26.086Z,1.00
2018-02-05T17:45:54.323Z,1.00
2018-02-05T17:48:21.885Z,0.90
2018-02-05T17:50:49.363Z,1.00
2018-02-05T17:53:16.896Z,1.00
2018-02-05T17:55:44.614Z,0.90
2018-02-05T17:58:12.858Z,0.90
2018-02-05T18:00:40.319Z,0.90
2018-02-05T18:03:07.854Z,0.90
2018-02-05T18:05:35.725Z,0.80
2018-02-05T18:08:03.198Z,0.90
2018-02-05T18:10:30.747Z,0.80
2018-02-05T18:12:58.210Z,0.80
2018-02-05T18:15:25.666Z,0.80
2018-02-05T18:17:53.159Z,0.70
2018-02-05T18:20:21.403Z,0.70
2018-02-05T18:22:48.886Z,0.70
2018-02-05T18:25:17.163Z,0.70
2018-02-05T18:27:44.649Z,0.70
2018-02-05T18:30:12.894Z,0.70
2018-02-05T18:32:40.561Z,0.70
2018-02-05T18:35:08.031Z,0.60
2018-02-05T18:37:36.367Z,0.60
2018-02-05T18:40:03.827Z,0.60
2018-02-05T18:42:31.327Z,0.60
2018-02-05T18:44:59.587Z,0.50
2018-02-05T18:47:27.060Z,0.50
2018-02-05T18:49:55.403Z,0.50
2018-02-05T18:52:22.847Z,0.50
2018-02-05T18:54:50.340Z,0.50
2018-02-05T18:57:17.827Z,0.50
2018-02-05T18:59:46.496Z,0.40
2018-02-05T19:02:22.659Z,0.40
2018-02-05T19:04:50.316Z,0.40
2018-02-05T19:07:18.776Z,0.40
2018-02-05T19:09:46.696Z,0.30
2018-02-05T22:39:41.011Z,-0.60
2018-02-05T22:42:08.485Z,-0.60
2018-02-05T22:44:35.946Z,-0.60
2018-02-05T22:47:03.442Z,-0.60
2018-02-05T22:49:30.907Z,-0.60
2018-02-05T22:51:58.409Z,-0.60
2018-02-05T22:54:26.575Z,-0.60
2018-02-05T22:56:54.030Z,-0.60
2018-02-05T22:59:21.475Z,-0.60
2018-02-05T23:01:49.894Z,-0.70
2018-02-05T23:04:17.749Z,-0.70
2018-02-05T23:06:45.219Z,-0.70
2018-02-05T23:09:12.991Z,-0.70
2018-02-05T23:11:40.456Z,-0.70
2018-02-05T23:14:09.493Z,-0.80
2018-02-05T23:16:37.010Z,-0.80
2018-02-05T23:19:04.462Z,-0.80
2018-02-05T23:21:31.940Z,-0.80
2018-02-05T23:24:00.188Z,-0.80
2018-02-05T23:26:27.659Z,-0.80
2018-02-05T23:28:55.123Z,-0.80
2018-02-05T23:31:22.611Z,-0.90
2018-02-05T23:33:50.095Z,-0.80
2018-02-05T23:36:17.595Z,-0.90
2018-02-05T23:38:46.002Z,-0.90
2018-02-05T23:41:13.563Z,-0.90
2018-02-05T23:43:41.783Z,-1.00
2018-02-05T23:46:09.293Z,-1.00
2018-02-05T23:48:37.533Z,-1.00
2018-02-05T23:51:05.021Z,-1.00
2018-02-05T23:53:32.540Z,-1.00
2018-02-05T23:56:00.045Z,-1.00
2018-02-05T23:58:28.281Z,-1.10
